Time;durP1;ratioP1;P1;durP2;ratioP2;P2;SDS_P1;SDS_P2;PMS_P1;PMS_P2;Temp;Humidity;BMP_temperature;BMP_pressure;BME280_temperature;BME280_humidity;BME280_pressure;Samples;Min_cycle;Max_cycle;Signal;HPM_P1;HPM_P2
2022/04/19 00:01:48;;;;;;;1.13;0.70;;;16.90;56.40;;;;;;5203546;28;20220;-66
2022/04/19 00:04:40;;;;;;;0.67;0.67;;;16.80;56.40;;;;;;5204057;28;20193;-65
2022/04/19 00:07:34;;;;;;;0.80;0.60;;;16.80;56.40;;;;;;5203877;28;20240;-66
2022/04/19 00:10:28;;;;;;;0.77;0.57;;;16.80;56.40;;;;;;5203708;28;20190;-65
2022/04/19 00:13:20;;;;;;;0.70;0.67;;;16.80;56.40;;;;;;5204093;28;20200;-67
2022/04/19 00:16:14;;;;;;;0.60;0.60;;;16.80;56.40;;;;;;5203845;28;20214;-66
2022/04/19 00:19:06;;;;;;;0.60;0.60;;;16.90;56.50;;;;;;5203519;28;20190;-66
2022/04/19 00:21:58;;;;;;;0.80;0.77;;;16.90;56.50;;;;;;5182898;28;20211;-65
2022/04/19 00:24:51;;;;;;;0.70;0.67;;;16.80;56.50;;;;;;5183659;28;20570;-66
2022/04/19 00:27:44;;;;;;;1.70;0.80;;;16.80;56.50;;;;;;5183322;28;20226;-66
2022/04/19 00:30:36;;;;;;;0.80;0.70;;;16.90;56.60;;;;;;5200963;28;20716;-65
2022/04/19 00:33:29;;;;;;;0.80;0.60;;;16.80;56.50;;;;;;5184488;28;20558;-65
2022/04/19 00:36:24;;;;;;;1.10;0.60;;;16.80;56.50;;;;;;5184144;28;20223;-65
2022/04/19 00:39:16;;;;;;;0.70;0.70;;;16.80;56.50;;;;;;5184016;28;20205;-66
2022/04/19 00:42:09;;;;;;;0.60;0.57;;;16.80;56.50;;;;;;5183779;28;20222;-65
2022/04/19 00:45:04;;;;;;;0.80;0.70;;;16.90;56.60;;;;;;5184662;28;20226;-66
2022/04/19 00:47:56;;;;;;;0.70;0.70;;;16.80;56.60;;;;;;5184468;28;20224;-66
2022/04/19 00:50:50;;;;;;;1.03;0.87;;;16.90;56.70;;;;;;5187152;28;20662;-66
2022/04/19 00:53:43;;;;;;;0.70;0.60;;;16.90;56.60;;;;;;5201358;28;20197;-66
2022/04/19 00:56:35;;;;;;;0.93;0.70;;;16.90;56.70;;;;;;5193215;28;20214;-66
2022/04/19 00:59:28;;;;;;;1.60;0.83;;;16.80;56.60;;;;;;5191699;28;20208;-65
2022/04/19 01:02:21;;;;;;;0.67;0.67;;;16.90;56.70;;;;;;5196687;28;20239;-66
2022/04/19 01:05:13;;;;;;;0.90;0.67;;;16.80;56.60;;;;;;5204341;28;20202;-66
2022/04/19 01:08:07;;;;;;;1.17;0.80;;;16.80;56.70;;;;;;5204090;28;20225;-66
2022/04/19 01:14:12;;;;;;;0.77;0.70;;;16.80;56.70;;;;;;5191686;28;20197;-66
2022/04/19 01:17:07;;;;;;;0.70;0.70;;;16.80;56.70;;;;;;5203996;28;20217;-66
2022/04/19 01:20:00;;;;;;;0.70;0.60;;;16.80;56.70;;;;;;5203666;28;20205;-66
2022/04/19 01:22:53;;;;;;;0.80;0.73;;;16.80;56.70;;;;;;5203063;28;20198;-66
2022/04/19 01:25:45;;;;;;;0.70;0.70;;;16.80;56.70;;;;;;5203979;28;20198;-66
2022/04/19 01:28:37;;;;;;;0.70;0.60;;;16.80;56.70;;;;;;5203475;28;20205;-65
2022/04/19 01:31:29;;;;;;;0.80;0.73;;;16.80;57.30;;;;;;5198138;28;20197;-67
2022/04/19 01:34:21;;;;;;;0.70;0.70;;;16.80;56.70;;;;;;5184109;28;20204;-66
2022/04/19 01:37:15;;;;;;;1.77;0.90;;;16.80;56.70;;;;;;5184226;28;20226;-65
2022/04/19 01:40:18;;;;;;;0.60;0.60;;;16.80;56.80;;;;;;5185673;28;20201;-66
2022/04/19 01:43:10;;;;;;;0.87;0.60;;;16.80;56.80;;;;;;5187736;28;20196;-66
2022/04/19 01:46:02;;;;;;;0.70;0.70;;;16.80;56.80;;;;;;5186516;28;20223;-65
2022/04/19 01:48:55;;;;;;;1.13;0.80;;;16.80;56.80;;;;;;5187865;28;20682;-66
2022/04/19 01:51:47;;;;;;;0.90;0.80;;;16.80;56.80;;;;;;5201936;28;20213;-66
2022/04/19 01:54:39;;;;;;;0.80;0.60;;;16.80;56.80;;;;;;5198498;28;20236;-66
2022/04/19 01:57:33;;;;;;;0.60;0.60;;;16.80;56.90;;;;;;5187621;28;20297;-66
2022/04/19 02:00:27;;;;;;;0.70;0.70;;;16.80;56.80;;;;;;5203370;28;20194;-65
2022/04/19 02:03:19;;;;;;;0.93;0.80;;;16.80;56.90;;;;;;5187345;28;20278;-66
2022/04/19 02:06:13;;;;;;;0.80;0.70;;;16.80;56.80;;;;;;5186704;28;20282;-66
2022/04/19 02:09:05;;;;;;;1.67;0.70;;;16.80;56.90;;;;;;5186766;28;20194;-65
2022/04/19 02:11:57;;;;;;;0.83;0.80;;;16.90;56.90;;;;;;5186695;28;20203;-66
2022/04/19 02:14:51;;;;;;;0.70;0.70;;;16.80;56.80;;;;;;5186606;28;20202;-66
2022/04/19 02:17:47;;;;;;;1.13;0.83;;;16.80;56.90;;;;;;5186814;28;20228;-65
2022/04/19 02:20:39;;;;;;;0.97;0.70;;;16.80;56.90;;;;;;5188043;28;20190;-65
2022/04/19 02:23:31;;;;;;;0.77;0.70;;;16.80;56.90;;;;;;5194733;28;20201;-66
2022/04/19 02:26:24;;;;;;;1.00;0.70;;;16.80;56.90;;;;;;5206397;28;20708;-64
2022/04/19 02:29:16;;;;;;;1.20;0.83;;;16.90;57.00;;;;;;5194110;28;20616;-66
2022/04/19 02:32:09;;;;;;;1.97;0.90;;;16.80;56.90;;;;;;5186691;28;20201;-66
2022/04/19 02:35:02;;;;;;;1.70;0.70;;;16.80;56.90;;;;;;5185826;28;20195;-65
2022/04/19 02:37:56;;;;;;;0.87;0.70;;;16.80;56.90;;;;;;5186374;28;20222;-66
2022/04/19 02:40:48;;;;;;;0.83;0.77;;;16.80;56.90;;;;;;5186272;28;20195;-65
2022/04/19 02:43:40;;;;;;;1.00;0.80;;;16.90;57.00;;;;;;5204898;28;20209;-66
2022/04/19 02:46:33;;;;;;;0.80;0.73;;;16.80;56.90;;;;;;5205812;28;20221;-66
2022/04/19 02:49:26;;;;;;;1.27;0.80;;;16.80;57.20;;;;;;5208465;28;20198;-65
2022/04/19 02:52:19;;;;;;;0.60;0.50;;;16.80;57.00;;;;;;5205530;28;20198;-65
2022/04/19 02:55:11;;;;;;;0.70;0.70;;;16.80;57.00;;;;;;5205635;28;20198;-66
2022/04/19 02:58:03;;;;;;;2.23;0.90;;;16.80;57.00;;;;;;5221162;28;20359;-66
2022/04/19 03:00:55;;;;;;;0.93;0.70;;;16.80;57.00;;;;;;5184387;28;20190;-66
2022/04/19 03:03:47;;;;;;;0.63;0.60;;;16.80;57.00;;;;;;5196385;28;20824;-66
2022/04/19 03:06:41;;;;;;;1.77;0.80;;;16.80;56.90;;;;;;5188729;28;20218;-65
2022/04/19 03:09:33;;;;;;;0.70;0.70;;;16.80;57.00;;;;;;5184947;28;20187;-65
2022/04/19 03:12:25;;;;;;;0.80;0.70;;;16.80;57.00;;;;;;5186047;28;20190;-65
2022/04/19 03:15:17;;;;;;;0.60;0.60;;;16.80;57.00;;;;;;5200882;28;20197;-65
2022/04/19 03:18:10;;;;;;;0.63;0.50;;;16.80;57.00;;;;;;5206019;28;20226;-65
2022/04/19 03:21:02;;;;;;;0.70;0.60;;;16.80;57.00;;;;;;5205146;28;20229;-64
2022/04/19 03:30:15;;;;;;;1.30;0.80;;;16.80;57.00;;;;;;5208097;28;20192;-65
2022/04/19 03:33:07;;;;;;;0.50;0.50;;;16.80;57.10;;;;;;5204871;28;20186;-65
2022/04/19 03:35:59;;;;;;;0.70;0.53;;;16.80;57.10;;;;;;5204828;28;20197;-66
2022/04/19 03:38:53;;;;;;;0.93;0.60;;;16.80;57.00;;;;;;5206233;28;20568;-66
2022/04/19 03:41:46;;;;;;;0.90;0.67;;;16.80;56.90;;;;;;5198823;28;20211;-65
2022/04/19 03:44:38;;;;;;;1.67;0.90;;;16.80;56.90;;;;;;5185656;28;20241;-64
2022/04/19 03:47:31;;;;;;;0.63;0.63;;;16.80;56.90;;;;;;5184550;28;20215;-64
2022/04/19 03:50:24;;;;;;;0.97;0.60;;;16.90;57.00;;;;;;5187789;28;20561;-66
2022/04/19 03:53:16;;;;;;;0.50;0.50;;;16.90;56.90;;;;;;5203971;28;20276;-66
2022/04/19 03:56:09;;;;;;;0.63;0.63;;;16.90;56.90;;;;;;5203939;28;20193;-66
2022/04/19 03:59:02;;;;;;;0.80;0.70;;;16.90;56.80;;;;;;5203776;28;20213;-66
2022/04/19 04:01:54;;;;;;;1.43;0.80;;;16.90;56.80;;;;;;5203908;28;20312;-66
2022/04/19 04:04:46;;;;;;;0.93;0.70;;;16.90;56.90;;;;;;5203850;28;20198;-65
2022/04/19 04:07:38;;;;;;;0.60;0.53;;;16.90;56.70;;;;;;5203036;28;20228;-65
2022/04/19 04:10:30;;;;;;;0.57;0.57;;;16.90;56.80;;;;;;5205033;28;20573;-64
2022/04/19 04:13:22;;;;;;;0.87;0.77;;;16.90;56.80;;;;;;5204829;28;20577;-65
2022/04/19 04:16:16;;;;;;;1.63;0.80;;;16.90;56.80;;;;;;5193117;28;20304;-66
2022/04/19 04:19:08;;;;;;;1.30;0.70;;;16.90;56.80;;;;;;5185307;28;20824;-65
2022/04/19 04:22:00;;;;;;;1.13;0.87;;;16.90;56.80;;;;;;5184724;28;20225;-66
2022/04/19 04:24:52;;;;;;;0.70;0.60;;;16.90;56.80;;;;;;5190601;28;20344;-66
2022/04/19 04:27:44;;;;;;;1.50;0.90;;;16.90;56.80;;;;;;5202713;28;20599;-65
2022/04/19 04:30:36;;;;;;;0.70;0.50;;;16.90;56.80;;;;;;5204359;28;20194;-66
2022/04/19 04:33:30;;;;;;;0.70;0.70;;;16.90;56.70;;;;;;5204496;28;20193;-64
2022/04/19 04:36:23;;;;;;;0.60;0.60;;;16.90;56.80;;;;;;5204466;28;20222;-65
2022/04/19 04:39:15;;;;;;;0.50;0.50;;;16.90;56.90;;;;;;5203007;28;20268;-65
2022/04/19 04:42:07;;;;;;;0.77;0.60;;;16.90;56.80;;;;;;5204151;28;20692;-66
2022/04/19 04:44:59;;;;;;;0.70;0.70;;;16.90;56.70;;;;;;5204913;28;20201;-66
2022/04/19 04:51:02;;;;;;;0.80;0.80;;;16.90;56.70;;;;;;5204764;28;20990;-66
2022/04/19 04:53:54;;;;;;;1.53;0.70;;;16.90;56.80;;;;;;5203700;28;20664;-66
2022/04/19 04:56:46;;;;;;;1.03;0.60;;;16.90;56.80;;;;;;5202959;28;20241;-66
2022/04/19 04:59:39;;;;;;;0.93;0.50;;;16.90;56.80;;;;;;5198029;28;20693;-66
2022/04/19 05:02:31;;;;;;;0.60;0.60;;;16.90;56.80;;;;;;5196499;28;20232;-64
2022/04/19 05:05:23;;;;;;;0.63;0.63;;;16.90;56.80;;;;;;5191634;28;20193;-65
2022/04/19 05:08:18;;;;;;;0.70;0.60;;;16.90;56.80;;;;;;5194125;28;20295;-66
2022/04/19 05:11:10;;;;;;;0.70;0.70;;;16.90;56.80;;;;;;5197512;28;20186;-64
2022/04/19 05:14:02;;;;;;;0.80;0.80;;;16.90;56.70;;;;;;5193335;28;20206;-66
2022/04/19 05:16:54;;;;;;;0.43;0.43;;;16.90;56.70;;;;;;5196331;28;20222;-66
2022/04/19 05:19:47;;;;;;;0.60;0.60;;;16.90;56.80;;;;;;5198069;28;20194;-65
2022/04/19 05:22:39;;;;;;;0.80;0.80;;;16.90;56.80;;;;;;5197229;28;20210;-65
2022/04/19 05:25:32;;;;;;;0.87;0.73;;;16.90;56.80;;;;;;5187847;28;20662;-65
2022/04/19 05:28:24;;;;;;;0.80;0.60;;;17.00;56.80;;;;;;5193270;28;20619;-65
2022/04/19 05:31:16;;;;;;;0.80;0.70;;;16.90;56.80;;;;;;5192527;28;20195;-65
2022/04/19 05:34:09;;;;;;;0.90;0.60;;;16.90;56.80;;;;;;5191273;28;20668;-66
2022/04/19 05:37:01;;;;;;;1.00;0.60;;;16.90;56.80;;;;;;5207545;28;20221;-65
2022/04/19 05:39:53;;;;;;;1.67;0.93;;;16.90;56.80;;;;;;5207980;28;20205;-64
2022/04/19 05:42:46;;;;;;;0.60;0.60;;;16.90;56.80;;;;;;5191607;28;20217;-65
2022/04/19 05:45:39;;;;;;;0.70;0.67;;;16.90;56.70;;;;;;5203486;28;20689;-65
2022/04/19 05:48:31;;;;;;;0.70;0.70;;;16.90;56.70;;;;;;5206694;28;20190;-65
2022/04/19 05:51:23;;;;;;;0.80;0.70;;;16.90;56.80;;;;;;5197912;28;20312;-65
2022/04/19 05:54:15;;;;;;;2.33;0.67;;;16.90;57.30;;;;;;5196723;28;20194;-66
2022/04/19 05:57:09;;;;;;;1.00;0.70;;;16.90;56.90;;;;;;5197612;28;20220;-66
2022/04/19 06:00:02;;;;;;;1.07;0.87;;;17.00;57.00;;;;;;5199169;28;20193;-65
2022/04/19 06:06:06;;;;;;;0.97;0.60;;;16.90;56.80;;;;;;5196949;28;20777;-66
2022/04/19 06:08:58;;;;;;;0.97;0.80;;;16.90;56.90;;;;;;5189348;28;20194;-66
2022/04/19 06:11:50;;;;;;;1.03;0.70;;;16.90;56.90;;;;;;5186571;28;20246;-63
2022/04/19 06:14:43;;;;;;;0.70;0.70;;;16.90;57.20;;;;;;5206861;28;20198;-63
2022/04/19 06:17:38;;;;;;;1.27;0.70;;;16.90;56.90;;;;;;5206378;28;20608;-64
2022/04/19 06:20:30;;;;;;;0.93;0.50;;;16.90;57.00;;;;;;5186454;28;20198;-66
2022/04/19 06:23:23;;;;;;;0.97;0.50;;;16.90;57.00;;;;;;5193091;28;20224;-65
2022/04/19 06:26:16;;;;;;;0.60;0.60;;;16.90;57.10;;;;;;5204302;28;20221;-65
2022/04/19 06:29:08;;;;;;;0.77;0.77;;;16.90;57.00;;;;;;5207861;28;20327;-65
2022/04/19 06:32:00;;;;;;;0.57;0.57;;;16.90;57.00;;;;;;5196588;28;20328;-65
2022/04/19 06:34:54;;;;;;;1.17;0.40;;;16.90;57.10;;;;;;5202721;28;20710;-62
2022/04/19 06:37:47;;;;;;;0.67;0.57;;;16.90;57.00;;;;;;5201512;28;20226;-64
2022/04/19 06:40:39;;;;;;;0.50;0.50;;;17.00;57.10;;;;;;5203242;28;20198;-65
2022/04/19 06:43:32;;;;;;;0.60;0.50;;;16.90;57.10;;;;;;5191900;28;20226;-65
2022/04/19 06:46:25;;;;;;;2.13;0.67;;;17.00;57.10;;;;;;5183775;28;20720;-65
2022/04/19 06:49:17;;;;;;;0.33;0.33;;;16.90;57.10;;;;;;5183009;28;20213;-64
2022/04/19 06:52:11;;;;;;;0.80;0.60;;;17.00;57.20;;;;;;5182123;28;20578;-65
2022/04/19 06:55:04;;;;;;;0.60;0.53;;;17.00;57.30;;;;;;5191809;28;20224;-65
2022/04/19 06:57:56;;;;;;;0.43;0.40;;;16.90;57.30;;;;;;5202878;28;20232;-65
2022/04/19 07:00:48;;;;;;;1.23;0.60;;;17.00;57.30;;;;;;5182861;28;20203;-65
2022/04/19 07:03:40;;;;;;;0.60;0.60;;;17.00;57.40;;;;;;5182778;28;20583;-65
2022/04/19 07:06:32;;;;;;;0.63;0.53;;;17.00;57.40;;;;;;5183034;28;20724;-65
2022/04/19 07:09:26;;;;;;;0.70;0.50;;;17.00;57.40;;;;;;5183433;28;20194;-65
2022/04/19 07:12:20;;;;;;;0.50;0.50;;;17.00;57.50;;;;;;5190541;28;20194;-65
2022/04/19 07:15:12;;;;;;;1.00;0.70;;;17.00;57.50;;;;;;5203021;28;20204;-65
2022/04/19 07:18:04;;;;;;;2.00;0.60;;;17.00;57.50;;;;;;5201840;28;20221;-65
2022/04/19 07:27:21;;;;;;;0.50;0.50;;;17.00;57.60;;;;;;5202795;28;20624;-64
2022/04/19 07:30:13;;;;;;;0.60;0.60;;;17.00;57.60;;;;;;5203229;28;20204;-64
2022/04/19 07:33:06;;;;;;;1.73;0.60;;;17.00;57.60;;;;;;5198112;28;20416;-65
2022/04/19 07:35:58;;;;;;;0.57;0.57;;;17.00;57.60;;;;;;5201916;28;20874;-65
2022/04/19 07:38:51;;;;;;;0.60;0.60;;;17.00;57.60;;;;;;5201480;28;20193;-64
2022/04/19 07:41:45;;;;;;;0.50;0.50;;;17.00;57.60;;;;;;5201866;28;20335;-65
2022/04/19 07:44:40;;;;;;;0.73;0.53;;;17.00;57.70;;;;;;5204696;28;20268;-65
2022/04/19 07:47:33;;;;;;;1.23;0.40;;;17.00;57.70;;;;;;5187881;28;20736;-64
2022/04/19 07:50:25;;;;;;;0.70;0.60;;;17.00;57.70;;;;;;5204927;28;20198;-64
2022/04/19 07:53:17;;;;;;;0.40;0.40;;;17.00;57.70;;;;;;5203397;28;20566;-68
2022/04/19 07:56:09;;;;;;;2.00;0.50;;;17.00;57.80;;;;;;5197085;28;20202;-68
2022/04/19 07:59:02;;;;;;;1.50;0.67;;;17.00;57.80;;;;;;5193141;28;20237;-68
2022/04/19 08:01:55;;;;;;;0.67;0.50;;;17.00;57.80;;;;;;5184357;28;20195;-68
2022/04/19 08:04:48;;;;;;;0.73;0.50;;;17.00;57.80;;;;;;5184795;28;20662;-68
2022/04/19 08:07:40;;;;;;;0.67;0.50;;;17.00;57.80;;;;;;5184290;28;20235;-67
2022/04/19 08:10:32;;;;;;;1.63;0.50;;;17.00;57.80;;;;;;5184597;28;20674;-68
2022/04/19 08:13:25;;;;;;;0.87;0.50;;;17.00;57.80;;;;;;5184348;28;20612;-68
2022/04/19 08:16:17;;;;;;;1.20;0.70;;;17.00;57.80;;;;;;5183706;28;20221;-68
2022/04/19 08:19:11;;;;;;;0.60;0.40;;;17.00;57.80;;;;;;5185929;28;20205;-68
2022/04/19 08:22:03;;;;;;;1.43;0.70;;;17.10;57.80;;;;;;5185477;28;20813;-68
2022/04/19 08:24:55;;;;;;;0.40;0.40;;;17.00;57.80;;;;;;5184461;28;20186;-68
2022/04/19 08:27:47;;;;;;;0.50;0.50;;;17.10;57.80;;;;;;5184926;28;20214;-68
2022/04/19 08:30:39;;;;;;;0.93;0.50;;;17.10;57.70;;;;;;5183702;28;20479;-67
2022/04/19 08:33:32;;;;;;;0.57;0.40;;;17.10;57.80;;;;;;5204000;28;20194;-69
2022/04/19 08:36:25;;;;;;;0.50;0.50;;;17.00;57.80;;;;;;5201590;28;20371;-68
2022/04/19 08:39:20;;;;;;;0.53;0.37;;;17.10;57.80;;;;;;5180948;28;20191;-68
2022/04/19 08:42:12;;;;;;;0.33;0.33;;;17.10;57.90;;;;;;5201803;28;20204;-65
2022/04/19 08:45:07;;;;;;;1.00;0.40;;;17.10;57.80;;;;;;5180177;28;20202;-66
2022/04/19 08:48:01;;;;;;;0.70;0.50;;;17.10;57.70;;;;;;5195172;28;20831;-65
2022/04/19 08:50:56;;;;;;;1.47;0.50;;;17.10;57.80;;;;;;5200211;28;20200;-64
2022/04/19 09:00:11;;;;;;;0.60;0.40;;;17.00;57.80;;;;;;5197176;28;20212;-64
2022/04/19 09:03:04;;;;;;;0.50;0.50;;;17.00;57.90;;;;;;5200654;28;20209;-65
2022/04/19 09:05:57;;;;;;;0.67;0.50;;;17.00;57.90;;;;;;5180492;28;20796;-65
2022/04/19 09:09:11;;;;;;;0.43;0.43;;;17.00;57.90;;;;;;5180844;28;20209;-65
2022/04/19 09:12:08;;;;;;;0.87;0.70;;;17.00;57.90;;;;;;5184439;28;20201;-64
2022/04/19 09:15:05;;;;;;;0.70;0.60;;;17.00;58.00;;;;;;5196315;28;20704;-62
2022/04/19 09:17:57;;;;;;;0.40;0.40;;;17.00;58.00;;;;;;5191285;28;20209;-64
2022/04/19 09:20:51;;;;;;;0.50;0.50;;;17.00;58.10;;;;;;5203221;28;20206;-69
2022/04/19 09:23:52;;;;;;;0.40;0.40;;;17.00;58.20;;;;;;5200100;28;20316;-69
2022/04/19 09:26:48;;;;;;;0.70;0.63;;;17.00;58.20;;;;;;5203983;28;20206;-69
2022/04/19 09:29:41;;;;;;;0.80;0.60;;;17.10;58.20;;;;;;5197768;28;20202;-70
2022/04/19 09:32:35;;;;;;;0.90;0.50;;;17.00;58.10;;;;;;5188262;28;20205;-70
2022/04/19 09:35:31;;;;;;;1.33;0.40;;;17.00;58.00;;;;;;5197733;28;20295;-70
2022/04/19 09:38:37;;;;;;;0.40;0.40;;;17.00;58.00;;;;;;5203006;28;20567;-69
2022/04/19 09:41:31;;;;;;;0.70;0.50;;;17.00;58.00;;;;;;5203706;28;20244;-68
2022/04/19 09:44:25;;;;;;;0.60;0.53;;;17.00;58.00;;;;;;5201374;28;20619;-69
2022/04/19 09:47:17;;;;;;;0.40;0.40;;;17.10;58.00;;;;;;5214496;28;20218;-69
2022/04/19 09:50:13;;;;;;;0.93;0.70;;;17.00;58.10;;;;;;5192482;28;20205;-69
2022/04/19 09:53:05;;;;;;;0.83;0.40;;;17.10;58.10;;;;;;5200373;28;20205;-69
2022/04/19 09:55:59;;;;;;;0.30;0.30;;;17.10;58.10;;;;;;5185692;28;20198;-68
2022/04/19 09:58:53;;;;;;;1.10;0.50;;;17.10;58.10;;;;;;5180480;28;20797;-68
2022/04/19 10:08:21;;;;;;;0.30;0.30;;;17.10;58.10;;;;;;5184605;28;20260;-69
2022/04/19 10:11:16;;;;;;;0.50;0.50;;;17.10;58.10;;;;;;5184799;28;20209;-68
2022/04/19 10:14:09;;;;;;;0.50;0.40;;;17.10;58.20;;;;;;5186372;28;20654;-69
2022/04/19 10:17:04;;;;;;;0.60;0.40;;;17.10;58.20;;;;;;5187671;28;20226;-69
2022/04/19 10:19:59;;;;;;;1.07;0.47;;;17.10;58.20;;;;;;5183716;28;20210;-68
2022/04/19 10:22:51;;;;;;;0.70;0.50;;;17.10;58.20;;;;;;5183558;28;20257;-69
2022/04/19 10:25:45;;;;;;;0.50;0.50;;;17.10;58.80;;;;;;5183805;28;20199;-68
2022/04/19 10:28:37;;;;;;;0.93;0.67;;;17.10;58.30;;;;;;5183722;28;20205;-69
2022/04/19 10:31:35;;;;;;;1.73;0.60;;;17.10;58.20;;;;;;5183444;28;20670;-69
2022/04/19 10:34:29;;;;;;;1.40;0.60;;;17.10;58.30;;;;;;5203263;28;20198;-69
2022/04/19 10:37:23;;;;;;;0.70;0.60;;;17.10;58.30;;;;;;5183534;28;20217;-68
2022/04/19 10:40:15;;;;;;;0.57;0.40;;;17.10;58.30;;;;;;5190764;28;20856;-68
2022/04/19 10:43:16;;;;;;;0.33;0.30;;;17.10;58.30;;;;;;5183071;28;20257;-68
2022/04/19 10:46:22;;;;;;;0.93;0.50;;;17.10;58.30;;;;;;5183163;28;20304;-69
2022/04/19 10:49:23;;;;;;;0.53;0.43;;;17.10;58.30;;;;;;5183327;28;20205;-68
2022/04/19 10:52:58;;;;;;;0.40;0.40;;;17.10;58.30;;;;;;5183114;28;20201;-69
2022/04/19 10:56:01;;;;;;;1.03;0.43;;;17.10;58.30;;;;;;5183162;28;20827;-69
2022/04/19 10:58:54;;;;;;;0.40;0.40;;;17.10;58.40;;;;;;5183020;28;20241;-69
2022/04/19 11:01:46;;;;;;;0.50;0.40;;;17.10;58.40;;;;;;5182846;28;20738;-69
2022/04/19 11:04:38;;;;;;;0.43;0.40;;;17.10;58.30;;;;;;5182817;28;20222;-69
2022/04/19 11:07:43;;;;;;;0.40;0.30;;;17.10;58.30;;;;;;5200022;28;20233;-68
2022/04/19 11:10:40;;;;;;;0.80;0.50;;;17.10;58.40;;;;;;5203929;28;20194;-68
2022/04/19 11:13:36;;;;;;;0.30;0.30;;;17.10;58.40;;;;;;5202674;28;20202;-68
2022/04/19 11:16:37;;;;;;;0.80;0.50;;;17.10;58.40;;;;;;5183299;28;20221;-69
2022/04/19 11:19:32;;;;;;;1.53;0.50;;;17.10;58.40;;;;;;5196109;28;20193;-66
2022/04/19 11:22:42;;;;;;;1.00;0.50;;;17.10;58.40;;;;;;5203794;28;20335;-69
2022/04/19 11:25:40;;;;;;;0.57;0.43;;;17.10;58.40;;;;;;5203450;28;20360;-68
2022/04/19 11:28:32;;;;;;;0.63;0.40;;;17.10;58.40;;;;;;5198825;28;20593;-69
2022/04/19 11:31:24;;;;;;;0.63;0.37;;;17.10;58.40;;;;;;5183293;28;20213;-68
2022/04/19 11:34:17;;;;;;;0.40;0.40;;;17.10;58.40;;;;;;5181630;28;20546;-69
2022/04/19 11:37:10;;;;;;;0.73;0.43;;;17.10;58.40;;;;;;5182257;28;20214;-69
2022/04/19 11:49:38;;;;;;;0.63;0.60;;;17.10;58.40;;;;;;5204503;28;20212;-68
2022/04/19 11:52:31;;;;;;;0.70;0.40;;;17.10;58.50;;;;;;5203516;28;20200;-69
2022/04/19 11:55:25;;;;;;;0.97;0.50;;;17.10;58.50;;;;;;5205505;28;20197;-69
2022/04/19 11:58:23;;;;;;;0.70;0.47;;;17.10;58.50;;;;;;5205830;28;20217;-69
2022/04/19 12:01:15;;;;;;;0.50;0.50;;;17.10;58.60;;;;;;5202716;28;20223;-69
2022/04/19 12:04:11;;;;;;;0.77;0.40;;;17.10;58.50;;;;;;5193699;28;20225;-69
2022/04/19 12:07:03;;;;;;;0.47;0.30;;;17.10;58.60;;;;;;5181429;28;20814;-69
2022/04/19 12:09:59;;;;;;;0.43;0.43;;;17.10;58.60;;;;;;5181558;28;20190;-69
2022/04/19 12:12:51;;;;;;;2.40;0.67;;;17.10;58.60;;;;;;5195284;28;20209;-69
2022/04/19 12:15:45;;;;;;;0.30;0.30;;;17.10;58.70;;;;;;5201257;28;20557;-68
2022/04/19 12:18:38;;;;;;;0.73;0.40;;;17.10;58.70;;;;;;5200706;28;20202;-69
2022/04/19 12:21:36;;;;;;;0.93;0.50;;;17.10;58.70;;;;;;5201482;28;20273;-69
2022/04/19 12:24:31;;;;;;;0.70;0.43;;;17.10;58.70;;;;;;5200574;28;20232;-68
2022/04/19 12:27:25;;;;;;;0.93;0.47;;;17.10;58.70;;;;;;5200785;28;20253;-68
2022/04/19 12:30:17;;;;;;;0.90;0.40;;;17.10;58.80;;;;;;5201054;28;20198;-69
2022/04/19 12:33:15;;;;;;;0.83;0.43;;;17.10;58.80;;;;;;5198864;28;20575;-69
2022/04/19 12:36:12;;;;;;;1.43;0.50;;;17.10;58.80;;;;;;5200222;28;20227;-69
2022/04/19 12:39:05;;;;;;;0.53;0.50;;;17.10;58.80;;;;;;5200287;28;20193;-69
2022/04/19 12:42:05;;;;;;;1.20;0.40;;;17.10;58.90;;;;;;5200407;28;20201;-69
2022/04/19 12:45:05;;;;;;;0.40;0.40;;;17.10;58.90;;;;;;5202122;28;20213;-69
2022/04/19 12:48:00;;;;;;;0.93;0.40;;;17.10;58.90;;;;;;5201718;28;20684;-69
2022/04/19 12:51:02;;;;;;;0.60;0.50;;;17.10;58.90;;;;;;5200618;28;20194;-69
2022/04/19 12:54:07;;;;;;;0.50;0.30;;;17.10;58.90;;;;;;5201238;28;20542;-69
2022/04/19 12:57:02;;;;;;;0.50;0.40;;;17.10;58.90;;;;;;5200738;28;20632;-69
2022/04/19 12:59:54;;;;;;;0.63;0.53;;;17.10;59.00;;;;;;5199145;28;20480;-69
2022/04/19 13:02:46;;;;;;;1.27;0.50;;;17.10;59.00;;;;;;5200472;28;20324;-69
2022/04/19 13:12:17;;;;;;;0.60;0.43;;;17.10;59.00;;;;;;5186399;28;20198;-69
2022/04/19 13:15:10;;;;;;;0.57;0.50;;;17.10;59.10;;;;;;5203780;28;20273;-69
2022/04/19 13:18:02;;;;;;;0.57;0.40;;;17.10;59.00;;;;;;5223477;28;20242;-69
2022/04/19 13:20:54;;;;;;;0.30;0.30;;;17.10;59.00;;;;;;5223252;28;20193;-69
2022/04/19 13:23:46;;;;;;;0.63;0.50;;;17.10;59.10;;;;;;5201711;28;20205;-69
2022/04/19 13:26:39;;;;;;;0.40;0.37;;;17.10;59.10;;;;;;5203151;28;20221;-68
2022/04/19 13:29:32;;;;;;;2.43;0.70;;;17.10;59.10;;;;;;5203543;28;20711;-66
2022/04/19 13:32:24;;;;;;;0.77;0.40;;;17.10;59.10;;;;;;5203415;28;20212;-69
2022/04/19 13:35:16;;;;;;;2.23;0.53;;;17.10;59.10;;;;;;5206248;28;20200;-69
2022/04/19 13:41:14;;;;;;;1.00;0.40;;;17.10;59.10;;;;;;5199469;28;20186;-69
2022/04/19 13:44:09;;;;;;;0.40;0.30;;;17.10;59.10;;;;;;5207405;28;20700;-69
2022/04/19 13:47:02;;;;;;;0.70;0.30;;;17.10;59.10;;;;;;5206676;28;20213;-69
2022/04/19 13:49:54;;;;;;;1.13;0.40;;;17.10;59.10;;;;;;5205946;28;20569;-67
2022/04/19 13:52:46;;;;;;;0.70;0.50;;;17.10;59.10;;;;;;5207407;28;20190;-67
2022/04/19 13:55:38;;;;;;;2.40;0.40;;;17.10;59.20;;;;;;5206762;28;20410;-67
2022/04/19 13:58:30;;;;;;;1.07;0.50;;;17.10;59.20;;;;;;5206376;28;20198;-67
2022/04/19 14:01:25;;;;;;;0.40;0.40;;;17.10;59.20;;;;;;5206270;28;20202;-66
2022/04/19 14:04:17;;;;;;;0.77;0.50;;;17.10;59.20;;;;;;5206276;28;20214;-66
2022/04/19 14:07:09;;;;;;;0.55;0.50;;;17.10;59.20;;;;;;5205323;28;20933;-64
2022/04/19 14:10:02;;;;;;;0.90;0.50;;;17.20;59.10;;;;;;5206770;28;20200;-63
2022/04/19 14:12:54;;;;;;;0.97;0.40;;;17.10;59.00;;;;;;5206784;28;20193;-64
2022/04/19 14:15:47;;;;;;;1.10;0.50;;;17.10;59.00;;;;;;5207057;28;20197;-65
2022/04/19 14:18:40;;;;;;;1.33;0.60;;;17.10;59.00;;;;;;5206640;28;20202;-63
2022/04/19 14:21:33;;;;;;;0.70;0.40;;;17.10;59.00;;;;;;5205888;28;20212;-62
2022/04/19 14:24:27;;;;;;;0.53;0.43;;;17.10;59.00;;;;;;5205993;28;20216;-64
2022/04/19 14:27:19;;;;;;;0.67;0.40;;;17.10;59.00;;;;;;5188509;28;20234;-63
2022/04/19 14:33:22;;;;;;;0.60;0.47;;;17.10;59.00;;;;;;5204091;28;20190;-67
2022/04/19 14:36:15;;;;;;;2.07;0.50;;;17.10;59.00;;;;;;5206628;28;20336;-67
2022/04/19 14:39:07;;;;;;;0.60;0.50;;;17.00;59.00;;;;;;5202431;28;20418;-68
2022/04/19 14:41:59;;;;;;;1.60;0.50;;;17.10;59.00;;;;;;5205533;28;20432;-70
2022/04/19 14:44:51;;;;;;;0.47;0.47;;;17.20;58.80;;;;;;5204197;28;20693;-70
2022/04/19 14:47:44;;;;;;;1.23;0.40;;;17.20;58.80;;;;;;5195113;28;20241;-70
2022/04/19 14:52:13;;;;;;;0.60;0.40;;;17.20;58.90;;;;;;5213759;28;20196;-69
2022/04/19 14:53:51;;;;;;;0.33;0.30;;;17.10;58.90;;;;;;5201147;28;20186;-70
2022/04/19 14:56:43;;;;;;;1.53;0.40;;;17.20;58.90;;;;;;5198917;28;20571;-70
2022/04/19 14:59:35;;;;;;;0.67;0.50;;;17.10;58.90;;;;;;5194518;28;20689;-70
2022/04/19 15:02:27;;;;;;;0.70;0.40;;;17.10;58.90;;;;;;5201923;28;20328;-70
2022/04/19 15:05:20;;;;;;;1.20;0.43;;;17.10;59.00;;;;;;5216966;28;20322;-71
2022/04/19 15:08:12;;;;;;;1.63;0.33;;;17.10;59.00;;;;;;5226656;28;20229;-70
2022/04/19 15:11:05;;;;;;;1.33;0.70;;;17.10;59.00;;;;;;5223549;28;20197;-68
2022/04/19 15:13:57;;;;;;;0.50;0.40;;;17.10;59.00;;;;;;5203929;28;20699;-70
2022/04/19 15:16:50;;;;;;;0.93;0.40;;;17.10;59.00;;;;;;5205409;28;20221;-70
2022/04/19 15:19:42;;;;;;;0.40;0.40;;;17.10;59.10;;;;;;5205623;28;20201;-70
2022/04/19 15:22:34;;;;;;;0.53;0.40;;;17.10;59.10;;;;;;5212631;28;20200;-68
2022/04/19 15:25:26;;;;;;;0.40;0.40;;;17.10;59.10;;;;;;5225748;28;20213;-70
2022/04/19 15:28:20;;;;;;;0.67;0.30;;;17.10;59.00;;;;;;5224923;28;20213;-70
2022/04/19 15:31:13;;;;;;;0.20;0.20;;;17.10;59.10;;;;;;5223697;28;20668;-70
2022/04/19 15:34:05;;;;;;;1.17;0.30;;;17.10;59.10;;;;;;5205842;28;20190;-70
2022/04/19 15:36:57;;;;;;;0.30;0.30;;;17.10;59.10;;;;;;5204555;28;20206;-70
2022/04/19 15:39:49;;;;;;;0.53;0.30;;;17.10;59.20;;;;;;5204370;28;20196;-70
2022/04/19 15:42:42;;;;;;;0.60;0.30;;;17.00;59.10;;;;;;5204822;28;20193;-69
2022/04/19 15:45:35;;;;;;;0.30;0.30;;;17.00;59.10;;;;;;5205540;28;20206;-68
2022/04/19 15:48:31;;;;;;;0.30;0.30;;;17.10;59.20;;;;;;5204797;28;20212;-70
2022/04/19 15:51:23;;;;;;;0.33;0.33;;;17.10;59.20;;;;;;5204203;28;20194;-70
2022/04/19 15:54:15;;;;;;;2.40;0.50;;;17.10;59.20;;;;;;5204890;28;20273;-70
2022/04/19 15:57:07;;;;;;;0.30;0.30;;;17.10;59.20;;;;;;5203151;28;20217;-70
2022/04/19 15:59:59;;;;;;;0.40;0.30;;;17.10;59.30;;;;;;5224523;28;20201;-69
2022/04/19 16:02:52;;;;;;;0.23;0.23;;;17.10;59.30;;;;;;5224328;28;20656;-69